Time;durP1;ratioP1;P1;durP2;ratioP2;P2;SDS_P1;SDS_P2;PMS_P1;PMS_P2;Temp;Humidity;BMP_temperature;BMP_pressure;BME280_temperature;BME280_humidity;BME280_pressure;Samples;Min_cycle;Max_cycle;Signal;HPM_P1;HPM_P2
2022/09/03 00:01:22;;;;;;;;;;;;;;;22.91;60.69;100098.09;3961510;31;15716134;-67
2022/09/03 00:03:54;;;;;;;;;;;;;;;22.91;60.69;100098.09;4427360;32;20005;-67
2022/09/03 00:06:23;;;;;;;;;;;;;;;22.43;61.90;100106.66;4427304;32;20016;-66
2022/09/03 00:11:38;;;;;;;;;;;;;;;22.79;61.17;100099.53;3952706;32;15724279;-67
2022/09/03 00:16:49;;;;;;;;;;;;;;;22.93;60.81;100094.69;3952094;32;15722599;-69
2022/09/03 00:19:17;;;;;;;;;;;;;;;22.93;60.81;100094.69;4427280;32;20045;-69
2022/09/03 00:21:45;;;;;;;;;;;;;;;22.47;61.79;100092.81;4432118;32;19961;-69
2022/09/03 00:24:13;;;;;;;;;;;;;;;22.47;61.88;100092.03;4431099;32;19949;-69
2022/09/03 00:26:41;;;;;;;;;;;;;;;22.45;61.71;100095.44;4429308;32;20068;-70
2022/09/03 00:29:10;;;;;;;;;;;;;;;22.43;61.89;100088.69;4416440;32;20004;-69
2022/09/03 00:31:37;;;;;;;;;;;;;;;22.40;61.75;100078.28;4429257;32;19949;-70
2022/09/03 00:34:10;;;;;;;;;;;;;;;22.37;61.74;100085.09;4428834;32;19967;-69
2022/09/03 00:36:41;;;;;;;;;;;;;;;22.42;61.99;100072.78;4427443;32;20458;-70
2022/09/03 00:39:08;;;;;;;;;;;;;;;22.45;61.78;100078.22;4413932;32;20262;-69
2022/09/03 00:41:40;;;;;;;;;;;;;;;22.42;61.58;100079.31;4429410;32;19977;-69
2022/09/03 00:44:12;;;;;;;;;;;;;;;22.45;61.90;100077.44;4430141;32;19995;-69
2022/09/03 00:51:59;;;;;;;;;;;;;;;22.62;61.77;100073.16;3954444;32;15726511;-69
2022/09/03 00:54:34;;;;;;;;;;;;;;;22.62;61.77;100073.16;4431518;32;20331;-69
2022/09/03 00:57:10;;;;;;;;;;;;;;;22.19;62.60;100072.25;4429834;32;19949;-69
2022/09/03 01:02:27;;;;;;;;;;;;;;;22.59;62.02;100059.88;3951729;32;15722438;-68
2022/09/03 01:05:02;;;;;;;;;;;;;;;22.59;62.02;100059.88;4430884;32;20024;-68
2022/09/03 01:07:48;;;;;;;;;;;;;;;22.09;62.84;100056.69;4429455;32;20008;-69
2022/09/03 01:10:27;;;;;;;;;;;;;;;22.13;62.83;100056.41;4429345;32;20017;-69
2022/09/03 01:13:13;;;;;;;;;;;;;;;22.12;62.57;100058.47;4428120;32;19995;-69
2022/09/03 01:21:28;;;;;;;;;;;;;;;22.18;62.98;100064.19;3953175;32;15723377;-69
2022/09/03 01:24:16;;;;;;;;;;;;;;;21.98;63.55;100067.47;4432577;32;19946;-68
2022/09/03 01:29:38;;;;;;;;;;;;;;;22.18;63.24;100064.94;3951845;32;15724490;-68
2022/09/03 01:40:04;;;;;;;;;;;;;;;22.62;61.97;100050.19;3952782;32;15723588;-69
2022/09/03 01:48:07;;;;;;;;;;;;;;;22.57;62.28;100033.03;3958776;31;15716797;-69
2022/09/03 01:50:38;;;;;;;;;;;;;;;22.57;62.28;100033.03;4433370;32;19984;-69
2022/09/03 01:55:56;;;;;;;;;;;;;;;22.46;62.63;100030.28;3952569;32;15725535;-67
2022/09/03 02:01:01;;;;;;;;;;;;;;;22.47;62.76;100026.09;3952310;32;15727586;-67
2022/09/03 02:03:34;;;;;;;;;;;;;;;22.47;62.76;100026.09;4418237;32;19996;-68
2022/09/03 02:05:59;;;;;;;;;;;;;;;22.06;63.52;100028.34;4431634;32;20386;-68
2022/09/03 02:08:25;;;;;;;;;;;;;;;22.02;63.63;100027.84;4431112;32;19964;-67
2022/09/03 02:10:52;;;;;;;;;;;;;;;21.98;63.81;100022.41;4428875;32;20078;-67
2022/09/03 02:15:57;;;;;;;;;;;;;;;22.40;63.22;100015.97;3953254;32;15722157;-69
2022/09/03 02:18:25;;;;;;;;;;;;;;;22.40;63.22;100015.97;4432390;32;19953;-69
2022/09/03 02:20:52;;;;;;;;;;;;;;;21.99;63.80;100015.34;4437649;32;20337;-69
2022/09/03 02:23:18;;;;;;;;;;;;;;;22.03;63.71;100020.81;4435411;32;19957;-69
2022/09/03 02:25:45;;;;;;;;;;;;;;;22.04;63.29;100016.63;4436728;32;20000;-69
2022/09/03 02:28:13;;;;;;;;;;;;;;;22.05;63.93;100021.81;4434857;32;19960;-69
2022/09/03 02:30:39;;;;;;;;;;;;;;;21.95;65.20;100016.97;4434132;32;20441;-69
2022/09/03 02:33:05;;;;;;;;;;;;;;;21.95;65.59;100019.81;4425839;32;20579;-69
2022/09/03 02:35:31;;;;;;;;;;;;;;;21.94;66.12;100015.41;4435960;32;19949;-69
2022/09/03 02:37:56;;;;;;;;;;;;;;;21.80;66.00;100014.50;4437784;32;19997;-69
2022/09/03 02:40:22;;;;;;;;;;;;;;;21.75;66.39;100034.59;4436271;32;19961;-69
2022/09/03 02:42:48;;;;;;;;;;;;;;;21.66;66.30;100024.97;4437224;32;19965;-68
2022/09/03 02:45:28;;;;;;;;;;;;;;;21.73;67.22;100023.63;4434345;32;19961;-68
2022/09/03 02:47:55;;;;;;;;;;;;;;;21.63;68.24;100023.19;4434268;32;20303;-68
2022/09/03 02:50:22;;;;;;;;;;;;;;;21.54;67.96;100012.06;4433919;32;20044;-68
2022/09/03 02:52:47;;;;;;;;;;;;;;;21.43;69.51;100002.78;4437227;32;19953;-68
2022/09/03 02:55:12;;;;;;;;;;;;;;;21.42;69.33;99999.13;4436125;32;19965;-68
2022/09/03 02:57:38;;;;;;;;;;;;;;;21.36;70.22;99991.91;4436104;32;19984;-68
2022/09/03 03:00:03;;;;;;;;;;;;;;;21.29;70.50;99981.00;4436721;32;19984;-68
2022/09/03 03:02:29;;;;;;;;;;;;;;;21.33;70.83;99984.38;4435272;32;19985;-68
2022/09/03 03:04:55;;;;;;;;;;;;;;;21.27;70.74;99986.50;4436095;32;19957;-68
2022/09/03 03:07:20;;;;;;;;;;;;;;;21.29;70.53;99986.72;4434838;32;20009;-68
2022/09/03 03:09:46;;;;;;;;;;;;;;;21.24;70.55;99984.69;4437390;32;20010;-68
2022/09/03 03:12:12;;;;;;;;;;;;;;;21.19;70.50;99982.62;4436137;32;19968;-68
2022/09/03 03:14:37;;;;;;;;;;;;;;;21.13;71.02;99976.97;4435661;32;20172;-68
2022/09/03 03:17:03;;;;;;;;;;;;;;;21.14;71.57;99980.59;4423033;32;20399;-68
2022/09/03 03:19:28;;;;;;;;;;;;;;;21.06;71.04;99971.81;4435524;32;19989;-68
2022/09/03 03:21:54;;;;;;;;;;;;;;;21.10;71.34;99975.16;4436015;32;20005;-68
2022/09/03 03:24:19;;;;;;;;;;;;;;;21.07;71.98;99979.06;4435018;32;19989;-68
2022/09/03 03:26:45;;;;;;;;;;;;;;;21.11;71.48;99975.94;4428469;32;20004;-68
2022/09/03 03:29:13;;;;;;;;;;;;;;;21.11;71.61;99976.69;4424807;32;19953;-68
2022/09/03 03:31:39;;;;;;;;;;;;;;;21.11;72.03;99973.84;4423232;32;20432;-68
2022/09/03 03:34:04;;;;;;;;;;;;;;;21.09;71.59;99973.59;4428998;32;20020;-68
2022/09/03 03:36:31;;;;;;;;;;;;;;;21.07;72.19;99976.22;4424224;32;19950;-68
2022/09/03 03:38:57;;;;;;;;;;;;;;;21.14;71.67;99984.22;4423825;32;19960;-68
2022/09/03 03:41:24;;;;;;;;;;;;;;;21.06;72.14;99980.38;4426183;32;20008;-68
2022/09/03 03:43:53;;;;;;;;;;;;;;;21.16;71.71;99984.47;4424507;32;20213;-68
2022/09/03 03:46:19;;;;;;;;;;;;;;;21.08;71.94;99974.91;4426012;32;20013;-68
2022/09/03 03:48:46;;;;;;;;;;;;;;;21.03;72.12;99978.59;4425237;32;19989;-68
2022/09/03 03:51:11;;;;;;;;;;;;;;;21.01;71.76;99969.75;4426040;32;19979;-68
2022/09/03 03:53:37;;;;;;;;;;;;;;;21.03;72.15;99977.78;4422895;32;19980;-68
2022/09/03 03:56:04;;;;;;;;;;;;;;;21.02;72.50;99971.28;4423147;32;19964;-68
2022/09/03 03:58:31;;;;;;;;;;;;;;;21.05;72.11;99973.09;4423433;32;20286;-68
2022/09/03 04:01:03;;;;;;;;;;;;;;;20.85;72.43;99964.88;4424461;32;19972;-68
2022/09/03 04:03:29;;;;;;;;;;;;;;;20.98;72.49;99961.44;4423013;32;20045;-68
2022/09/03 04:05:55;;;;;;;;;;;;;;;21.00;72.26;99962.47;4424915;32;20008;-68
2022/09/03 04:08:21;;;;;;;;;;;;;;;21.01;71.87;99961.16;4425019;32;20008;-68
2022/09/03 04:10:47;;;;;;;;;;;;;;;21.09;71.93;99964.25;4422983;32;20442;-68
2022/09/03 04:13:13;;;;;;;;;;;;;;;21.12;71.82;99963.97;4420026;32;19993;-69
2022/09/03 04:15:39;;;;;;;;;;;;;;;21.07;72.14;99963.97;4425657;32;20661;-68
2022/09/03 04:18:05;;;;;;;;;;;;;;;21.05;71.91;99961.66;4422291;32;20370;-68
2022/09/03 04:20:31;;;;;;;;;;;;;;;21.09;72.35;99969.97;4424927;32;19972;-68
2022/09/03 04:23:00;;;;;;;;;;;;;;;20.98;72.23;99973.66;4423411;32;20294;-68
2022/09/03 04:25:26;;;;;;;;;;;;;;;21.04;72.64;99977.28;4422166;32;19960;-69
2022/09/03 04:27:52;;;;;;;;;;;;;;;20.99;71.88;99978.06;4423544;32;19985;-68
2022/09/03 04:30:18;;;;;;;;;;;;;;;20.94;72.72;99976.03;4424291;32;19962;-68
2022/09/03 04:32:59;;;;;;;;;;;;;;;20.86;72.75;99972.13;4425012;32;20244;-68
2022/09/03 04:35:28;;;;;;;;;;;;;;;20.89;72.22;99973.94;4425015;32;19953;-68
2022/09/03 04:37:54;;;;;;;;;;;;;;;20.81;72.33;99967.25;4422027;32;20000;-68
2022/09/03 04:40:19;;;;;;;;;;;;;;;20.67;73.03;99964.69;4422942;32;20012;-68
2022/09/03 04:42:45;;;;;;;;;;;;;;;20.79;72.65;99964.13;4424027;32;20367;-68
2022/09/03 04:45:14;;;;;;;;;;;;;;;20.82;72.67;99965.94;4424641;32;19953;-69
2022/09/03 04:47:40;;;;;;;;;;;;;;;20.80;73.06;99959.19;4424078;32;19981;-69
2022/09/03 04:50:05;;;;;;;;;;;;;;;20.73;73.29;99963.37;4423829;32;20376;-69
2022/09/03 04:52:31;;;;;;;;;;;;;;;20.73;73.22;99954.78;4425177;32;20326;-68
2022/09/03 04:54:58;;;;;;;;;;;;;;;20.75;72.49;99952.19;4423957;32;19956;-68
2022/09/03 04:57:24;;;;;;;;;;;;;;;20.72;72.79;99947.53;4422409;32;20420;-68
2022/09/03 04:59:49;;;;;;;;;;;;;;;20.68;73.33;99949.88;4423877;32;20005;-68
2022/09/03 05:02:14;;;;;;;;;;;;;;;20.67;73.51;99944.69;4421624;32;20442;-68
2022/09/03 05:04:41;;;;;;;;;;;;;;;20.71;73.08;99943.09;4425241;32;19957;-68
2022/09/03 05:07:06;;;;;;;;;;;;;;;20.67;72.98;99944.69;4414339;32;20031;-68
2022/09/03 05:09:32;;;;;;;;;;;;;;;20.68;73.64;99938.44;4424265;32;19942;-69
2022/09/03 05:11:57;;;;;;;;;;;;;;;20.73;73.76;99946.22;4424925;32;20011;-68
2022/09/03 05:14:23;;;;;;;;;;;;;;;20.72;73.28;99944.66;4422407;32;20258;-68
2022/09/03 05:16:49;;;;;;;;;;;;;;;20.77;72.65;99952.41;4423563;32;20033;-68
2022/09/03 05:19:15;;;;;;;;;;;;;;;20.81;72.27;99946.44;4423116;32;19953;-68
2022/09/03 05:21:41;;;;;;;;;;;;;;;20.84;72.29;99954.75;4425614;32;19982;-68
2022/09/03 05:24:10;;;;;;;;;;;;;;;20.90;72.28;99954.72;4423095;32;19997;-68
2022/09/03 05:26:37;;;;;;;;;;;;;;;20.91;72.16;99956.25;4421335;32;20295;-68
2022/09/03 05:29:06;;;;;;;;;;;;;;;20.90;72.14;99960.44;4421186;32;19993;-68
2022/09/03 05:31:32;;;;;;;;;;;;;;;20.85;72.11;99964.09;4420535;32;19953;-68
2022/09/03 05:34:00;;;;;;;;;;;;;;;20.72;71.85;99961.03;4422818;32;19980;-68
2022/09/03 05:36:27;;;;;;;;;;;;;;;20.77;72.45;99958.13;4422296;32;20365;-69
2022/09/03 05:38:54;;;;;;;;;;;;;;;20.70;72.06;99957.91;4423141;32;20009;-68
2022/09/03 05:41:20;;;;;;;;;;;;;;;20.60;72.68;99956.66;4422415;32;20298;-68
2022/09/03 05:43:54;;;;;;;;;;;;;;;20.56;73.22;99953.31;4424017;32;19968;-68
2022/09/03 05:46:26;;;;;;;;;;;;;;;20.60;73.20;99957.47;4422128;32;19957;-68
2022/09/03 05:48:51;;;;;;;;;;;;;;;20.61;73.41;99949.63;4422343;32;20000;-68
2022/09/03 05:51:17;;;;;;;;;;;;;;;20.59;73.83;99955.87;4422209;32;20455;-68
2022/09/03 05:53:44;;;;;;;;;;;;;;;20.63;73.35;99955.63;4421599;32;19950;-68
2022/09/03 05:56:16;;;;;;;;;;;;;;;20.63;73.06;99955.63;4420528;32;20024;-68
2022/09/03 05:58:44;;;;;;;;;;;;;;;20.67;72.83;99942.59;4421263;32;19967;-68
2022/09/03 06:03:47;;;;;;;;;;;;;;;21.24;71.79;99962.59;3953290;32;15722612;-68
2022/09/03 06:06:13;;;;;;;;;;;;;;;21.24;71.79;99962.59;4427771;32;19989;-68
2022/09/03 06:08:40;;;;;;;;;;;;;;;20.94;72.48;99958.06;4426399;32;20008;-69
2022/09/03 06:11:06;;;;;;;;;;;;;;;21.02;71.66;99959.09;4424763;32;19993;-68
2022/09/03 06:13:32;;;;;;;;;;;;;;;21.10;71.42;99949.41;4430610;32;20092;-68
2022/09/03 06:15:58;;;;;;;;;;;;;;;21.19;71.53;99945.44;4427678;32;19953;-68
2022/09/03 06:18:24;;;;;;;;;;;;;;;21.28;71.03;99947.97;4427949;32;20386;-68
2022/09/03 06:20:58;;;;;;;;;;;;;;;21.41;70.42;99945.25;4428629;32;20004;-68
2022/09/03 06:23:24;;;;;;;;;;;;;;;21.52;69.85;99943.13;4426414;32;19968;-68
2022/09/03 06:26:10;;;;;;;;;;;;;;;21.58;69.21;99949.56;4427089;32;19990;-68
2022/09/03 06:28:36;;;;;;;;;;;;;;;21.69;69.10;99952.31;4429207;32;20001;-68
2022/09/03 06:31:03;;;;;;;;;;;;;;;21.77;68.32;99949.69;4429194;32;20412;-68
2022/09/03 06:33:29;;;;;;;;;;;;;;;21.82;67.65;99948.06;4426734;32;20383;-68
2022/09/03 06:35:56;;;;;;;;;;;;;;;22.00;67.76;99947.37;4427991;32;20032;-68
2022/09/03 06:38:23;;;;;;;;;;;;;;;22.10;67.22;99948.56;4426810;32;19954;-68
2022/09/03 06:40:51;;;;;;;;;;;;;;;22.15;67.17;99953.47;4424455;32;20427;-68
2022/09/03 06:43:16;;;;;;;;;;;;;;;22.23;66.37;99957.28;4425223;32;19958;-68
2022/09/03 06:45:42;;;;;;;;;;;;;;;22.18;66.88;99970.34;4427466;32;20206;-68
2022/09/03 06:48:07;;;;;;;;;;;;;;;22.27;65.81;99972.13;4428035;32;19946;-69
2022/09/03 06:50:33;;;;;;;;;;;;;;;22.36;65.96;99975.38;4426888;32;20001;-68
2022/09/03 06:52:58;;;;;;;;;;;;;;;22.46;65.68;99975.78;4425887;32;19953;-68
2022/09/03 06:55:24;;;;;;;;;;;;;;;22.53;65.18;99973.13;4425642;32;20454;-69
2022/09/03 06:57:56;;;;;;;;;;;;;;;22.57;64.25;99961.34;4426339;32;20367;-69
2022/09/03 07:00:22;;;;;;;;;;;;;;;22.70;65.05;99959.34;4426349;32;20342;-69
2022/09/03 07:02:47;;;;;;;;;;;;;;;22.78;64.18;99954.56;4424963;32;20350;-68
2022/09/03 07:05:13;;;;;;;;;;;;;;;22.95;64.21;99965.81;4427117;32;19961;-69
2022/09/03 07:07:39;;;;;;;;;;;;;;;23.11;63.04;99951.19;4425513;32;20005;-68
2022/09/03 07:10:05;;;;;;;;;;;;;;;23.07;62.82;99953.63;4427687;32;20022;-68
2022/09/03 07:12:31;;;;;;;;;;;;;;;23.16;61.51;99961.84;4425593;32;20047;-68
2022/09/03 07:14:57;;;;;;;;;;;;;;;23.12;62.82;99966.34;4421219;32;19958;-69
2022/09/03 07:17:22;;;;;;;;;;;;;;;23.24;62.46;99965.66;4416116;32;20023;-69
2022/09/03 07:19:48;;;;;;;;;;;;;;;23.28;62.74;99963.25;4413582;32;20355;-69
2022/09/03 07:22:14;;;;;;;;;;;;;;;23.40;62.37;99963.84;4415441;32;20190;-69
2022/09/03 07:24:40;;;;;;;;;;;;;;;23.58;61.35;99970.87;4418087;32;19985;-69
2022/09/03 07:27:07;;;;;;;;;;;;;;;23.79;60.55;99969.75;4403744;32;19993;-69
2022/09/03 07:29:32;;;;;;;;;;;;;;;23.78;60.50;99976.03;4414561;32;20443;-69
2022/09/03 07:31:57;;;;;;;;;;;;;;;23.83;60.48;99978.81;4416163;32;20017;-68
2022/09/03 07:34:23;;;;;;;;;;;;;;;23.99;60.18;99969.13;4416692;32;19962;-69
2022/09/03 07:36:50;;;;;;;;;;;;;;;24.10;58.95;99965.28;4416417;32;19961;-69
2022/09/03 07:39:16;;;;;;;;;;;;;;;24.24;59.08;99972.63;4417107;32;19965;-69
2022/09/03 07:41:44;;;;;;;;;;;;;;;24.38;58.73;99969.19;4414279;32;19973;-69
2022/09/03 07:44:12;;;;;;;;;;;;;;;24.60;58.49;99971.63;4414638;32;19973;-69
2022/09/03 07:46:39;;;;;;;;;;;;;;;24.81;57.19;99972.50;4415731;32;20354;-69
2022/09/03 07:49:05;;;;;;;;;;;;;;;24.88;57.46;99968.19;4404817;32;20352;-69
2022/09/03 07:51:32;;;;;;;;;;;;;;;24.79;56.09;99968.66;4415415;32;20474;-69
2022/09/03 07:53:58;;;;;;;;;;;;;;;24.90;55.83;99977.03;4416198;32;20420;-68
2022/09/03 07:56:25;;;;;;;;;;;;;;;25.41;55.17;99980.34;4416013;32;19997;-68
2022/09/03 07:58:51;;;;;;;;;;;;;;;25.29;54.11;99988.47;4415992;32;19969;-68
2022/09/03 08:01:18;;;;;;;;;;;;;;;25.44;53.98;99988.66;4415891;32;19961;-68
2022/09/03 08:03:45;;;;;;;;;;;;;;;25.57;54.05;99996.47;4413613;32;19998;-68
2022/09/03 08:06:11;;;;;;;;;;;;;;;25.39;54.41;99989.56;4414378;32;19961;-68
2022/09/03 08:08:36;;;;;;;;;;;;;;;25.26;54.70;99981.72;4414324;32;20377;-68
2022/09/03 08:11:06;;;;;;;;;;;;;;;25.53;53.83;99991.06;4413337;32;20034;-68
2022/09/03 08:13:32;;;;;;;;;;;;;;;25.69;53.03;99986.22;4414263;32;19960;-68
2022/09/03 08:15:59;;;;;;;;;;;;;;;25.17;54.06;99992.91;4417292;32;19961;-68
2022/09/03 08:18:26;;;;;;;;;;;;;;;25.26;54.22;99984.59;4413320;32;19950;-68
2022/09/03 08:20:51;;;;;;;;;;;;;;;25.41;53.72;99980.34;4418380;32;19949;-68
2022/09/03 08:23:17;;;;;;;;;;;;;;;25.50;53.20;99982.75;4415738;32;20329;-68
2022/09/03 08:25:43;;;;;;;;;;;;;;;25.49;53.50;99984.09;4412916;32;19954;-68
2022/09/03 08:28:08;;;;;;;;;;;;;;;25.32;53.55;99990.25;4414158;32;19995;-68
2022/09/03 08:30:34;;;;;;;;;;;;;;;25.30;54.13;99987.91;4413875;32;19985;-68
2022/09/03 08:33:03;;;;;;;;;;;;;;;25.41;54.44;99989.00;4413370;32;20417;-68
2022/09/03 08:35:33;;;;;;;;;;;;;;;25.57;53.87;99987.81;4414525;32;19958;-68
2022/09/03 08:38:04;;;;;;;;;;;;;;;25.66;53.37;99991.00;4416316;32;20295;-68
2022/09/03 08:40:32;;;;;;;;;;;;;;;25.89;53.15;99994.09;4414216;32;20543;-68
2022/09/03 08:43:16;;;;;;;;;;;;;;;25.96;52.39;100002.81;4416943;32;20008;-68
2022/09/03 08:45:41;;;;;;;;;;;;;;;26.13;52.52;99996.62;4412076;32;20079;-68
2022/09/03 08:48:14;;;;;;;;;;;;;;;26.53;51.29;99995.00;4409914;32;20411;-68
2022/09/03 08:50:42;;;;;;;;;;;;;;;26.67;50.45;100003.03;4413712;32;19961;-68
2022/09/03 08:53:12;;;;;;;;;;;;;;;26.98;50.31;100006.84;4414658;32;19989;-68
2022/09/03 08:55:46;;;;;;;;;;;;;;;27.01;50.13;100009.38;4414947;32;20008;-68
2022/09/03 08:58:17;;;;;;;;;;;;;;;26.85;49.66;100013.50;4416031;32;20000;-68
2022/09/03 09:06:07;;;;;;;;;;;;;;;27.25;49.05;100019.72;3953339;32;15722560;-69
2022/09/03 09:08:52;;;;;;;;;;;;;;;27.25;49.05;100019.72;4426999;32;20004;-69
2022/09/03 09:11:26;;;;;;;;;;;;;;;26.43;50.29;100019.94;4430232;32;19972;-69
2022/09/03 09:14:12;;;;;;;;;;;;;;;26.47;50.63;100023.25;4431374;32;20356;-69
2022/09/03 09:16:43;;;;;;;;;;;;;;;26.47;50.45;100026.13;4429009;32;20004;-69
2022/09/03 09:21:51;;;;;;;;;;;;;;;27.04;49.39;100014.00;3952463;32;15723501;-69
2022/09/03 09:24:22;;;;;;;;;;;;;;;27.04;49.39;100014.00;4426469;32;19961;-70
2022/09/03 09:26:48;;;;;;;;;;;;;;;26.71;49.96;100017.09;4430116;32;19996;-69
2022/09/03 09:29:14;;;;;;;;;;;;;;;26.86;49.98;100023.72;4429507;32;19961;-69
2022/09/03 09:31:43;;;;;;;;;;;;;;;26.81;49.95;100023.87;4426341;32;20001;-69
2022/09/03 09:34:10;;;;;;;;;;;;;;;27.02;49.73;100028.25;4427321;32;20459;-69
2022/09/03 09:36:41;;;;;;;;;;;;;;;27.25;48.79;100019.72;4432060;32;20600;-70
2022/09/03 09:39:09;;;;;;;;;;;;;;;27.42;48.26;100017.06;4430773;32;19990;-69
2022/09/03 09:41:35;;;;;;;;;;;;;;;27.67;47.87;100018.09;4428101;32;20001;-70
2022/09/03 09:44:01;;;;;;;;;;;;;;;27.63;47.42;100016.91;4429998;32;19945;-70
2022/09/03 09:46:33;;;;;;;;;;;;;;;27.93;47.21;100019.91;4427310;32;20030;-69
2022/09/03 09:48:59;;;;;;;;;;;;;;;28.21;46.54;100020.50;4428304;32;20024;-70
2022/09/03 09:51:27;;;;;;;;;;;;;;;28.20;46.16;100018.97;4431379;32;19949;-69
2022/09/03 09:54:00;;;;;;;;;;;;;;;28.22;45.92;100027.81;4428489;32;20895;-69
2022/09/03 09:56:25;;;;;;;;;;;;;;;28.27;45.89;100020.31;4430550;32;19945;-70
2022/09/03 09:59:08;;;;;;;;;;;;;;;27.96;46.54;100030.31;4429424;32;19960;-70
2022/09/03 10:01:36;;;;;;;;;;;;;;;27.91;47.16;100029.16;4429819;32;19997;-69
2022/09/03 10:04:10;;;;;;;;;;;;;;;27.83;46.89;100024.69;4433860;32;20180;-69
2022/09/03 10:07:07;;;;;;;;;;;;;;;27.81;47.15;100031.03;4430664;32;20492;-69
2022/09/03 10:09:24;;;;;;;;;;;;;;;27.81;46.74;100028.16;4430014;32;20073;-70
2022/09/03 10:12:13;;;;;;;;;;;;;;;27.79;47.00;100025.06;4430816;32;20334;-69
2022/09/03 10:14:44;;;;;;;;;;;;;;;27.72;46.75;100028.72;4432447;32;20393;-69
2022/09/03 10:22:47;;;;;;;;;;;;;;;28.52;45.65;100032.84;4434520;32;20776;-69
2022/09/03 10:25:15;;;;;;;;;;;;;;;28.30;45.50;100031.50;4429089;32;20664;-69
2022/09/03 10:27:42;;;;;;;;;;;;;;;28.53;45.35;100025.72;4428351;32;19989;-69
2022/09/03 10:30:09;;;;;;;;;;;;;;;28.70;44.04;100032.47;4426844;32;20365;-69
2022/09/03 10:40:32;;;;;;;;;;;;;;;29.20;43.27;100019.00;3951262;32;15722536;-69
2022/09/03 10:51:06;;;;;;;;;;;;;;;29.56;42.11;100019.41;3953001;32;15722419;-70
2022/09/03 10:56:20;;;;;;;;;;;;;;;29.62;40.65;100017.09;3966593;31;15717729;-68
2022/09/03 10:59:05;;;;;;;;;;;;;;;29.62;40.65;100017.09;4442891;32;20027;-68
2022/09/03 11:01:38;;;;;;;;;;;;;;;29.12;41.51;100009.59;4443908;32;19990;-68
2022/09/03 11:07:01;;;;;;;;;;;;;;;29.71;40.81;100016.44;3952085;32;15724550;-69
2022/09/03 11:09:35;;;;;;;;;;;;;;;29.71;40.81;100016.44;4428786;32;19968;-69
2022/09/03 11:12:04;;;;;;;;;;;;;;;29.44;40.69;100009.63;4425086;32;20016;-70
2022/09/03 11:17:09;;;;;;;;;;;;;;;30.26;39.85;100025.75;3952162;32;15723595;-69
2022/09/03 11:19:40;;;;;;;;;;;;;;;30.26;39.85;100025.75;4428518;32;19954;-68
2022/09/03 11:22:06;;;;;;;;;;;;;;;30.35;39.27;100021.41;4427981;32;20264;-70
2022/09/03 11:24:33;;;;;;;;;;;;;;;30.46;38.81;100023.81;4426086;32;19965;-70
2022/09/03 11:27:11;;;;;;;;;;;;;;;30.93;37.68;100017.75;4428998;32;20316;-70
2022/09/03 11:29:57;;;;;;;;;;;;;;;31.22;36.27;100023.78;4431182;32;20292;-69
2022/09/03 11:32:29;;;;;;;;;;;;;;;31.34;36.46;100021.94;4426230;32;19960;-70
2022/09/03 11:34:54;;;;;;;;;;;;;;;31.34;36.97;100022.72;4426254;32;20420;-70
2022/09/03 11:42:35;;;;;;;;;;;;;;;32.38;35.36;100010.13;3950734;31;15717051;-70
2022/09/03 11:45:21;;;;;;;;;;;;;;;32.38;35.36;100010.13;4422117;32;20051;-70
2022/09/03 11:47:48;;;;;;;;;;;;;;;32.01;35.52;100008.56;4421440;32;21555;-70
2022/09/03 11:50:23;;;;;;;;;;;;;;;31.32;35.35;100010.91;4421586;32;19949;-69
2022/09/03 11:52:50;;;;;;;;;;;;;;;31.38;35.39;100008.50;4422116;32;19961;-70
2022/09/03 11:55:32;;;;;;;;;;;;;;;31.77;34.80;100007.38;4422176;32;19992;-68
2022/09/03 11:58:10;;;;;;;;;;;;;;;31.65;35.06;100003.47;4423205;32;20335;-70
2022/09/03 12:00:37;;;;;;;;;;;;;;;31.49;35.00;100007.97;4423220;32;20025;-70
2022/09/03 12:03:02;;;;;;;;;;;;;;;31.17;35.46;100011.06;4424103;32;20563;-68
2022/09/03 12:13:24;;;;;;;;;;;;;;;32.02;33.91;100005.06;3964716;31;15716709;-70
2022/09/03 12:18:41;;;;;;;;;;;;;;;32.43;33.54;100014.91;3952783;32;15723637;-70
2022/09/03 12:21:08;;;;;;;;;;;;;;;32.43;33.54;100014.91;4427491;32;19968;-68
2022/09/03 12:23:51;;;;;;;;;;;;;;;32.08;33.90;100020.09;4426878;32;19993;-68
2022/09/03 12:26:18;;;;;;;;;;;;;;;31.87;34.03;100014.03;4430427;32;19999;-68
2022/09/03 12:28:45;;;;;;;;;;;;;;;31.58;34.71;100010.16;4429271;32;20422;-68
2022/09/03 12:33:52;;;;;;;;;;;;;;;32.33;33.65;100011.91;3951589;32;15722920;-69
2022/09/03 12:36:18;;;;;;;;;;;;;;;32.33;33.65;100011.91;4429031;32;19953;-69
2022/09/03 12:38:43;;;;;;;;;;;;;;;31.92;34.12;100004.25;4427522;32;20915;-69
2022/09/03 12:41:26;;;;;;;;;;;;;;;32.56;33.20;100009.41;4428078;32;20080;-69
2022/09/03 12:43:52;;;;;;;;;;;;;;;32.52;32.93;100006.16;4430133;32;20249;-69
2022/09/03 12:46:21;;;;;;;;;;;;;;;32.49;32.62;100004.47;4428536;32;19957;-68
2022/09/03 12:48:55;;;;;;;;;;;;;;;32.62;32.56;100012.03;4427458;32;20339;-70
2022/09/03 12:51:21;;;;;;;;;;;;;;;32.73;32.38;100002.66;4430030;32;19962;-69
2022/09/03 12:53:49;;;;;;;;;;;;;;;32.70;32.34;100003.13;4426699;32;19994;-69
2022/09/03 12:56:15;;;;;;;;;;;;;;;32.27;32.67;100008.53;4425635;32;20199;-68
2022/09/03 12:58:48;;;;;;;;;;;;;;;31.94;33.05;100000.75;4429535;32;19976;-69
2022/09/03 13:01:18;;;;;;;;;;;;;;;31.70;33.76;100010.37;4427106;32;20026;-69
2022/09/03 13:06:21;;;;;;;;;;;;;;;32.50;33.01;100000.19;3951492;32;15721636;-69
2022/09/03 13:08:50;;;;;;;;;;;;;;;32.50;33.01;100000.19;4434911;32;19965;-70
2022/09/03 13:11:18;;;;;;;;;;;;;;;32.25;33.11;99999.66;4435967;32;19973;-69
2022/09/03 13:14:00;;;;;;;;;;;;;;;32.74;32.46;99995.47;4436301;32;20044;-69
2022/09/03 13:21:49;;;;;;;;;;;;;;;33.86;30.01;100003.59;3953238;32;15723310;-70
2022/09/03 13:24:34;;;;;;;;;;;;;;;33.87;30.09;100002.63;4429776;32;19989;-69
2022/09/03 13:34:51;;;;;;;;;;;;;;;32.76;31.76;100001.44;3952110;32;15724592;-69
2022/09/03 13:37:26;;;;;;;;;;;;;;;32.21;32.33;99984.75;4436841;32;19988;-68
2022/09/03 13:39:58;;;;;;;;;;;;;;;32.11;32.84;99998.50;4433839;32;20302;-69
2022/09/03 13:45:20;;;;;;;;;;;;;;;31.74;33.09;99988.22;3952136;32;15723484;-69
2022/09/03 13:50:41;;;;;;;;;;;;;;;31.66;33.33;99990.44;4435306;32;19961;-70
2022/09/03 13:53:08;;;;;;;;;;;;;;;31.34;33.74;99998.66;4429773;32;20037;-68
2022/09/03 13:55:40;;;;;;;;;;;;;;;31.41;33.53;99995.66;4429076;32;20063;-68
2022/09/03 13:58:26;;;;;;;;;;;;;;;31.24;33.99;99994.91;4433430;32;20008;-68
2022/09/03 14:01:12;;;;;;;;;;;;;;;31.49;33.65;99996.34;4428422;32;19953;-68
2022/09/03 14:03:57;;;;;;;;;;;;;;;31.48;33.75;99994.81;4432589;32;20574;-68
2022/09/03 14:15:01;;;;;;;;;;;;;;;30.45;35.31;99990.34;3953205;32;15722552;-68
2022/09/03 14:20:12;;;;;;;;;;;;;;;30.69;34.90;99983.72;3951463;32;15723144;-70
2022/09/03 14:25:15;;;;;;;;;;;;;;;31.13;34.09;99987.47;3951493;32;15725508;-69
2022/09/03 14:27:41;;;;;;;;;;;;;;;31.13;34.09;99987.47;4426819;32;19993;-70
2022/09/03 14:30:23;;;;;;;;;;;;;;;30.60;34.43;99979.34;4425907;32;19993;-70
2022/09/03 14:33:09;;;;;;;;;;;;;;;30.57;34.48;99979.78;4428449;32;20103;-70
2022/09/03 14:35:41;;;;;;;;;;;;;;;30.43;34.95;99984.38;4431121;32;20388;-69
2022/09/03 14:40:44;;;;;;;;;;;;;;;29.72;36.09;99976.59;3969191;32;15724560;-68
2022/09/03 14:43:29;;;;;;;;;;;;;;;29.59;36.41;99968.16;4458080;32;19992;-69
2022/09/03 14:54:16;;;;;;;;;;;;;;;28.86;38.13;99976.00;3952509;32;15724450;-69
2022/09/03 14:59:44;;;;;;;;;;;;;;;28.49;39.06;99971.13;3951530;32;15722507;-70
2022/09/03 15:02:29;;;;;;;;;;;;;;;28.49;39.06;99971.13;4431215;32;19953;-70
2022/09/03 15:05:15;;;;;;;;;;;;;;;28.04;39.72;99971.13;4430081;32;20048;-69
2022/09/03 15:07:44;;;;;;;;;;;;;;;28.06;39.74;99977.09;4428610;32;19957;-69
2022/09/03 15:12:51;;;;;;;;;;;;;;;27.77;40.63;99986.50;3956876;32;15724429;-68
2022/09/03 15:15:30;;;;;;;;;;;;;;;27.49;41.14;99980.88;4443818;32;20021;-68
2022/09/03 15:20:51;;;;;;;;;;;;;;;28.83;38.76;99985.09;3951238;32;15722391;-69
2022/09/03 15:23:36;;;;;;;;;;;;;;;28.83;38.76;99985.09;4434777;32;20286;-70
2022/09/03 15:31:34;;;;;;;;;;;;;;;29.47;37.49;99978.66;3937733;32;15724376;-68